createdAt,value
2022-12-05T00:01:00.603Z,8.12
2022-12-05T00:03:28.216Z,8.48
2022-12-05T00:05:55.553Z,8.73
2022-12-05T00:08:22.858Z,8.56
2022-12-05T00:10:50.448Z,7.83
2022-12-05T00:13:17.922Z,8.14
2022-12-05T00:15:45.264Z,8.29
2022-12-05T00:18:12.881Z,7.92
2022-12-05T00:20:47.166Z,6.62
2022-12-05T00:23:14.842Z,7.54
2022-12-05T00:25:42.208Z,8.29
2022-12-05T00:28:09.563Z,8.62
2022-12-05T00:30:40.501Z,8.70
2022-12-05T00:33:07.852Z,8.34
2022-12-05T00:35:35.322Z,8.46
2022-12-05T00:38:02.895Z,8.17
2022-12-05T00:40:30.203Z,8.36
2022-12-05T00:42:57.561Z,8.13
2022-12-05T00:45:25.171Z,8.51
2022-12-05T00:47:52.479Z,8.44
2022-12-05T00:50:19.977Z,8.21
2022-12-05T00:52:47.562Z,8.22
2022-12-05T00:55:14.869Z,8.23
2022-12-05T00:57:42.300Z,7.46
2022-12-05T01:00:10.230Z,7.58
2022-12-05T01:02:37.841Z,8.30
2022-12-05T01:05:05.705Z,8.66
2022-12-05T01:07:33.285Z,7.94
2022-12-05T01:10:00.636Z,8.26
2022-12-05T01:12:28.211Z,8.12
2022-12-05T01:14:55.786Z,8.32
2022-12-05T01:17:23.069Z,8.65
2022-12-05T01:19:50.385Z,7.62
2022-12-05T01:22:18.158Z,7.62
2022-12-05T01:24:46.099Z,7.76
2022-12-05T01:27:13.433Z,7.79
2022-12-05T01:29:41.012Z,8.02
2022-12-05T01:32:08.363Z,7.78
2022-12-05T01:34:35.764Z,6.75
2022-12-05T01:37:03.492Z,7.45
2022-12-05T01:39:30.793Z,7.94
2022-12-05T01:41:58.128Z,8.17
2022-12-05T01:44:25.559Z,7.53
2022-12-05T01:46:52.904Z,7.98
2022-12-05T01:49:32.989Z,6.50
2022-12-05T01:52:14.139Z,7.54
2022-12-05T01:54:41.552Z,7.06
2022-12-05T01:57:10.845Z,6.91
2022-12-05T01:59:44.341Z,7.09
2022-12-05T02:02:11.968Z,6.90
2022-12-05T02:04:49.326Z,7.58
2022-12-05T02:07:16.649Z,7.42
2022-12-05T02:09:44.227Z,7.17
2022-12-05T02:12:11.641Z,7.77
2022-12-05T02:14:52.373Z,7.82
2022-12-05T02:17:32.673Z,7.49
2022-12-05T02:20:12.030Z,8.07
2022-12-05T02:22:58.628Z,7.23
2022-12-05T02:25:56.900Z,7.24
2022-12-05T02:28:32.328Z,7.90
2022-12-05T02:31:04.788Z,8.21
2022-12-05T02:33:44.025Z,8.41
2022-12-05T02:36:39.382Z,8.36
2022-12-05T02:39:14.289Z,7.89
2022-12-05T02:41:47.098Z,8.28
2022-12-05T02:44:22.751Z,7.88
2022-12-05T02:46:50.115Z,8.15
2022-12-05T02:49:20.909Z,8.48
2022-12-05T02:51:50.310Z,8.62
2022-12-05T02:54:24.174Z,8.64
2022-12-05T02:56:51.615Z,7.84
2022-12-05T02:59:23.284Z,7.87
2022-12-05T03:01:51.216Z,8.03
2022-12-05T03:04:21.036Z,8.20
2022-12-05T03:06:58.094Z,7.92
2022-12-05T03:09:30.468Z,6.49
2022-12-05T03:12:21.195Z,6.82
2022-12-05T03:15:06.758Z,7.97
2022-12-05T03:17:37.254Z,7.65
2022-12-05T03:20:28.375Z,7.78
2022-12-05T03:23:19.728Z,7.68
2022-12-05T03:25:50.169Z,8.10
2022-12-05T03:28:25.718Z,7.97
2022-12-05T03:30:53.701Z,6.77
2022-12-05T03:33:23.664Z,7.74
2022-12-05T03:36:03.243Z,7.70
2022-12-05T03:38:35.987Z,6.74
2022-12-05T03:41:25.832Z,7.91
2022-12-05T03:43:57.551Z,7.80
2022-12-05T03:46:30.357Z,6.60
2022-12-05T03:49:00.924Z,6.56
2022-12-05T03:51:33.368Z,6.90
2022-12-05T03:54:10.957Z,7.51
2022-12-05T03:56:42.005Z,7.15
2022-12-05T03:59:19.204Z,7.41
2022-12-05T04:01:46.998Z,6.99
2022-12-05T04:04:21.034Z,6.77
2022-12-05T04:06:49.088Z,5.96
2022-12-05T04:09:20.557Z,6.36
2022-12-05T04:11:53.701Z,6.36
2022-12-05T04:14:27.077Z,6.81
2022-12-05T04:17:09.385Z,7.35
2022-12-05T04:20:06.403Z,7.61
2022-12-05T04:22:33.931Z,7.35
2022-12-05T04:25:21.174Z,7.32
2022-12-05T04:27:57.068Z,7.34
2022-12-05T04:30:30.604Z,6.83
2022-12-05T04:33:00.226Z,6.69
2022-12-05T04:35:34.076Z,6.49
2022-12-05T04:38:15.754Z,5.96
2022-12-05T04:41:04.273Z,6.14
2022-12-05T04:43:33.807Z,7.23
2022-12-05T04:46:01.457Z,7.05
2022-12-05T04:48:28.849Z,7.15
2022-12-05T04:50:56.293Z,6.56
2022-12-05T04:53:25.103Z,6.07
2022-12-05T04:55:52.656Z,6.16
2022-12-05T04:58:24.246Z,6.04
2022-12-05T05:01:11.534Z,6.61
2022-12-05T05:04:09.731Z,7.03
2022-12-05T05:06:38.360Z,6.22
2022-12-05T05:09:05.743Z,6.23
2022-12-05T05:11:34.113Z,7.09
2022-12-05T05:14:01.913Z,6.58
2022-12-05T05:16:34.212Z,7.25
2022-12-05T05:19:01.924Z,7.38
2022-12-05T05:21:30.728Z,6.84
2022-12-05T05:23:58.267Z,6.83
2022-12-05T05:26:26.510Z,7.35
2022-12-05T05:28:53.823Z,7.67
2022-12-05T05:31:21.547Z,6.78
2022-12-05T05:33:50.285Z,7.37
2022-12-05T05:36:18.002Z,6.56
2022-12-05T05:38:47.342Z,7.33
2022-12-05T05:41:28.611Z,6.94
2022-12-05T05:43:56.324Z,6.77
2022-12-05T05:46:26.185Z,7.65
2022-12-05T05:48:53.659Z,6.88
2022-12-05T05:51:21.276Z,6.77
2022-12-05T05:53:48.898Z,7.08
2022-12-05T05:56:21.538Z,6.84
2022-12-05T05:58:55.531Z,7.36
2022-12-05T06:01:23.004Z,7.49
2022-12-05T06:03:51.010Z,7.81
2022-12-05T06:06:18.621Z,7.51
2022-12-05T06:08:46.066Z,7.67
2022-12-05T06:11:18.853Z,7.57
2022-12-05T06:13:49.051Z,7.41
2022-12-05T06:16:17.638Z,7.48
2022-12-05T06:18:45.055Z,6.92
2022-12-05T06:21:16.199Z,7.46
2022-12-05T06:23:44.289Z,7.22
2022-12-05T06:26:13.197Z,6.51
2022-12-05T06:28:40.627Z,6.42
2022-12-05T06:31:10.002Z,5.97
2022-12-05T06:33:37.409Z,6.59
2022-12-05T06:36:10.837Z,7.06
2022-12-05T06:38:41.968Z,6.71
2022-12-05T06:41:14.919Z,6.60
2022-12-05T06:43:42.703Z,6.21
2022-12-05T06:46:11.840Z,7.07
2022-12-05T06:48:39.292Z,6.96
2022-12-05T06:51:09.336Z,7.35
2022-12-05T06:53:36.813Z,7.58
2022-12-05T06:56:05.604Z,7.09
2022-12-05T06:58:33.176Z,7.68
2022-12-05T07:01:19.271Z,7.91
2022-12-05T07:03:48.952Z,7.71
2022-12-05T07:06:16.698Z,7.20
2022-12-05T07:08:44.849Z,8.11
2022-12-05T07:11:12.538Z,7.94
2022-12-05T07:13:39.897Z,8.20
2022-12-05T07:16:07.895Z,8.59
2022-12-05T07:18:36.035Z,8.93
2022-12-05T07:21:13.433Z,8.55
2022-12-05T07:23:42.346Z,7.74
2022-12-05T07:26:11.276Z,8.49
2022-12-05T07:28:38.617Z,8.94
2022-12-05T07:31:10.766Z,8.50
2022-12-05T07:33:38.379Z,8.89
2022-12-05T07:36:11.353Z,8.48
2022-12-05T07:38:39.340Z,7.65
2022-12-05T07:41:12.800Z,7.35
2022-12-05T07:43:41.502Z,8.07
2022-12-05T07:46:11.309Z,7.28
2022-12-05T07:48:39.367Z,7.31
2022-12-05T07:51:08.621Z,8.36
2022-12-05T07:53:37.820Z,7.74
2022-12-05T07:56:06.672Z,8.66
2022-12-05T07:58:34.943Z,8.51
2022-12-05T08:01:10.744Z,8.03
2022-12-05T08:03:38.528Z,8.68
2022-12-05T08:06:07.495Z,8.51
2022-12-05T08:08:34.835Z,8.77
2022-12-05T08:11:12.578Z,8.42
2022-12-05T08:13:39.994Z,7.97
2022-12-05T08:16:10.096Z,8.51
2022-12-05T08:18:37.614Z,8.77
2022-12-05T08:21:06.768Z,8.53
2022-12-05T08:23:34.702Z,7.87
2022-12-05T08:26:06.198Z,7.55
2022-12-05T08:28:33.913Z,8.37
2022-12-05T08:31:08.327Z,7.78
2022-12-05T08:33:35.968Z,8.18
2022-12-05T08:36:10.334Z,8.36
2022-12-05T08:38:37.984Z,8.88
2022-12-05T08:41:06.664Z,8.05
2022-12-05T08:43:34.047Z,7.81
2022-12-05T08:46:01.808Z,7.64
2022-12-05T08:48:29.919Z,7.07
2022-12-05T08:50:57.434Z,7.47
2022-12-05T08:53:25.566Z,8.69
2022-12-05T08:55:52.886Z,7.96
2022-12-05T08:58:20.221Z,8.97
2022-12-05T09:00:47.860Z,7.93
2022-12-05T09:03:15.195Z,8.04
2022-12-05T09:05:42.648Z,8.71
2022-12-05T09:08:10.342Z,9.26
2022-12-05T09:10:38.288Z,9.01
2022-12-05T09:13:05.671Z,9.35
2022-12-05T09:15:33.383Z,9.30
2022-12-05T09:18:00.767Z,9.54
2022-12-05T09:20:28.135Z,7.92
2022-12-05T09:22:55.748Z,7.82
2022-12-05T09:25:23.060Z,8.43
2022-12-05T09:27:50.384Z,8.87
2022-12-05T09:30:18.606Z,9.06
2022-12-05T09:32:46.403Z,9.56
2022-12-05T09:35:14.083Z,8.77
2022-12-05T09:37:41.908Z,8.40
2022-12-05T09:40:16.192Z,8.31
2022-12-05T09:42:56.855Z,8.24
2022-12-05T09:45:26.607Z,8.86
2022-12-05T09:48:11.479Z,9.21
2022-12-05T09:50:54.788Z,8.59
2022-12-05T09:53:37.280Z,7.37
2022-12-05T09:56:06.401Z,7.56
2022-12-05T09:58:43.781Z,8.95
2022-12-05T10:01:21.848Z,9.16
2022-12-05T10:04:01.792Z,8.10
2022-12-05T10:06:32.340Z,9.33
2022-12-05T10:09:30.948Z,9.55
2022-12-05T10:12:17.625Z,9.49
2022-12-05T10:15:01.864Z,9.75
2022-12-05T10:17:33.730Z,9.86
2022-12-05T10:20:14.054Z,10.37
2022-12-05T10:22:48.202Z,9.43
2022-12-05T10:25:18.683Z,10.17
2022-12-05T10:27:50.019Z,9.30
2022-12-05T10:30:22.193Z,8.76
2022-12-05T10:33:09.175Z,9.18
2022-12-05T10:35:38.301Z,9.20
2022-12-05T10:38:07.167Z,10.15
2022-12-05T10:40:39.627Z,8.84
2022-12-05T10:43:08.801Z,8.67
2022-12-05T10:45:40.411Z,8.71
2022-12-05T10:48:09.757Z,8.24
2022-12-05T10:50:37.542Z,9.28
2022-12-05T10:53:05.741Z,9.17
2022-12-05T10:55:41.239Z,9.30
2022-12-05T10:58:17.255Z,9.13
2022-12-05T11:00:47.820Z,9.18
2022-12-05T11:03:33.823Z,9.49
2022-12-05T11:06:02.908Z,9.19
2022-12-05T11:09:02.376Z,9.46
2022-12-05T11:11:21.770Z,8.55
2022-12-05T11:13:57.479Z,8.65
2022-12-05T11:16:36.186Z,8.83
2022-12-05T11:19:27.204Z,8.76
2022-12-05T11:21:55.178Z,9.62
2022-12-05T11:24:31.851Z,8.98
2022-12-05T11:27:15.953Z,10.10
2022-12-05T11:29:44.830Z,8.32
2022-12-05T11:32:20.651Z,9.72
2022-12-05T11:35:05.666Z,10.34
2022-12-05T11:37:58.056Z,9.95
2022-12-05T11:41:07.612Z,9.73
2022-12-05T11:43:53.430Z,10.14
2022-12-05T11:46:37.637Z,9.55
2022-12-05T11:49:27.381Z,10.19
2022-12-05T11:51:58.873Z,9.92
2022-12-05T11:55:04.962Z,9.55
2022-12-05T11:57:50.420Z,9.13
2022-12-05T12:00:23.721Z,9.13
2022-12-05T12:03:14.660Z,9.38
2022-12-05T12:05:57.413Z,9.35
2022-12-05T12:08:27.571Z,9.46
2022-12-05T12:11:19.522Z,9.76
2022-12-05T12:14:07.634Z,8.53
2022-12-05T12:16:50.284Z,9.52
2022-12-05T12:19:21.895Z,9.41
2022-12-05T12:22:11.312Z,8.73
2022-12-05T12:25:05.229Z,8.85
2022-12-05T12:28:17.563Z,9.40
2022-12-05T12:31:12.332Z,10.14
2022-12-05T12:33:51.174Z,9.71
2022-12-05T12:36:46.473Z,9.57
2022-12-05T12:39:41.948Z,9.39
2022-12-05T12:42:26.429Z,9.90
2022-12-05T12:45:21.142Z,10.25
2022-12-05T12:48:08.057Z,10.23
2022-12-05T12:50:43.211Z,9.79
2022-12-05T12:53:30.197Z,10.11
2022-12-05T12:56:04.468Z,9.75
2022-12-05T12:58:50.631Z,9.37
2022-12-05T13:01:33.220Z,9.85
2022-12-05T13:04:12.483Z,9.52
2022-12-05T13:06:57.850Z,9.64
2022-12-05T13:09:53.740Z,9.28
2022-12-05T13:12:27.381Z,9.46
2022-12-05T13:15:18.890Z,8.52
2022-12-05T13:17:47.288Z,9.30
2022-12-05T13:20:20.669Z,9.35
2022-12-05T13:22:49.278Z,9.49
2022-12-05T13:25:17.712Z,9.00
2022-12-05T13:27:59.020Z,8.20
2022-12-05T13:30:31.063Z,8.88
2022-12-05T13:32:59.821Z,8.57
2022-12-05T13:35:50.668Z,9.29
2022-12-05T13:38:49.865Z,9.00
2022-12-05T13:41:36.169Z,8.90
2022-12-05T13:44:06.796Z,9.63
2022-12-05T13:46:35.721Z,9.90
2022-12-05T13:49:17.214Z,9.52
2022-12-05T13:51:45.374Z,9.70
2022-12-05T13:54:18.343Z,8.72
2022-12-05T13:56:55.976Z,8.56
2022-12-05T14:00:03.231Z,8.91
2022-12-05T14:02:42.385Z,9.02
2022-12-05T14:05:19.136Z,8.67
2022-12-05T14:07:53.198Z,8.48
2022-12-05T14:10:21.910Z,9.16
2022-12-05T14:12:51.079Z,9.00
2022-12-05T14:15:32.854Z,8.95
2022-12-05T14:18:10.813Z,9.48
2022-12-05T14:20:47.559Z,8.60
2022-12-05T14:23:52.066Z,8.99
2022-12-05T14:26:34.846Z,8.97
2022-12-05T14:29:31.402Z,9.24
2022-12-05T14:32:18.344Z,8.85
2022-12-05T14:34:56.324Z,9.72
2022-12-05T14:37:28.965Z,9.17
2022-12-05T14:40:00.843Z,9.03
2022-12-05T14:42:43.994Z,8.70
2022-12-05T14:45:29.246Z,8.95
2022-12-05T14:47:58.619Z,8.93
2022-12-05T14:50:40.087Z,8.45
2022-12-05T14:53:30.235Z,8.06
2022-12-05T14:56:02.200Z,8.53
2022-12-05T14:59:01.997Z,8.14
2022-12-05T15:01:48.830Z,7.78
2022-12-05T15:04:33.577Z,8.79
2022-12-05T15:07:04.215Z,8.92
2022-12-05T15:09:37.309Z,8.59
2022-12-05T15:12:10.354Z,8.88
2022-12-05T15:14:48.068Z,8.47
2022-12-05T15:17:18.562Z,8.99
2022-12-05T15:19:51.093Z,8.24
2022-12-05T15:22:20.019Z,8.41
2022-12-05T15:24:47.415Z,8.16
2022-12-05T15:27:16.711Z,8.69
2022-12-05T15:29:44.361Z,8.34
2022-12-05T15:32:11.534Z,8.84
2022-12-05T15:34:52.182Z,8.55
2022-12-05T15:37:27.275Z,8.05
2022-12-05T15:40:21.959Z,8.21
2022-12-05T15:42:56.267Z,8.27
2022-12-05T15:45:30.021Z,8.72
2022-12-05T15:48:11.450Z,9.15
2022-12-05T15:50:42.684Z,8.44
2022-12-05T15:53:17.129Z,8.19
2022-12-05T15:55:49.475Z,8.77
2022-12-05T15:58:31.581Z,8.93
2022-12-05T16:01:05.177Z,9.70
2022-12-05T16:03:44.914Z,9.67
2022-12-05T16:06:18.495Z,8.92
2022-12-05T16:08:46.551Z,9.71
2022-12-05T16:11:14.138Z,9.51
2022-12-05T16:13:52.110Z,9.77
2022-12-05T16:16:21.892Z,9.45
2022-12-05T16:18:57.070Z,8.53
2022-12-05T16:21:42.005Z,9.29
2022-12-05T16:24:20.033Z,8.83
2022-12-05T16:26:58.939Z,9.72
2022-12-05T16:29:28.336Z,9.81
2022-12-05T16:31:57.060Z,9.64
2022-12-05T16:34:24.635Z,9.94
2022-12-05T16:36:52.594Z,9.10
2022-12-05T16:39:20.271Z,9.30
2022-12-05T16:41:47.611Z,9.52
2022-12-05T16:44:27.000Z,9.43
2022-12-05T16:46:57.794Z,8.58
2022-12-05T16:49:31.153Z,8.91
2022-12-05T16:52:07.580Z,8.65
2022-12-05T16:54:35.184Z,9.10
2022-12-05T16:57:02.805Z,9.11
2022-12-05T16:59:37.590Z,9.14
2022-12-05T17:02:07.644Z,9.30
2022-12-05T17:04:35.233Z,8.15
2022-12-05T17:07:02.657Z,8.87
2022-12-05T17:09:30.270Z,8.92
2022-12-05T17:12:21.719Z,9.10
2022-12-05T17:14:49.537Z,8.84
2022-12-05T17:17:18.233Z,9.03
2022-12-05T17:19:45.602Z,9.40
2022-12-05T17:22:13.979Z,8.78
2022-12-05T17:24:41.593Z,9.28
2022-12-05T17:27:12.245Z,9.53
2022-12-05T17:29:39.855Z,9.01
2022-12-05T17:32:07.195Z,9.14
2022-12-05T17:34:34.547Z,8.89
2022-12-05T17:37:02.606Z,9.11
2022-12-05T17:39:29.952Z,8.60
2022-12-05T17:41:57.288Z,9.00
2022-12-05T17:44:25.127Z,9.17
2022-12-05T17:46:52.540Z,9.01
2022-12-05T17:49:20.215Z,9.49
2022-12-05T17:54:35.156Z,9.67
2022-12-05T17:57:02.888Z,9.35
2022-12-05T17:59:30.244Z,9.27
2022-12-05T18:01:57.587Z,9.23
2022-12-05T18:04:25.232Z,8.83
2022-12-05T18:06:52.702Z,9.12
2022-12-05T18:09:20.101Z,9.34
2022-12-05T18:11:47.713Z,8.73
2022-12-05T18:14:15.103Z,9.03
2022-12-05T18:16:43.150Z,9.22
2022-12-05T18:19:10.854Z,8.73
2022-12-05T18:21:38.185Z,9.23
2022-12-05T18:24:05.624Z,9.23
2022-12-05T18:26:33.358Z,9.09
2022-12-05T18:29:00.681Z,9.17
2022-12-05T18:31:28.059Z,9.07
2022-12-05T18:33:55.704Z,9.12
2022-12-05T18:36:23.037Z,9.05
2022-12-05T18:38:51.601Z,8.94
2022-12-05T18:41:19.484Z,9.41
2022-12-05T18:43:47.205Z,9.29
2022-12-05T18:46:14.590Z,9.18
2022-12-05T18:48:46.022Z,9.05
2022-12-05T18:51:15.362Z,8.96
2022-12-05T18:53:43.036Z,9.07
2022-12-05T18:56:22.094Z,9.20
2022-12-05T18:59:14.396Z,9.81
2022-12-05T19:01:42.167Z,9.69
2022-12-05T19:04:12.462Z,9.66
2022-12-05T19:06:41.452Z,9.40
2022-12-05T19:09:11.739Z,8.97
2022-12-05T19:11:47.324Z,9.72
2022-12-05T19:14:16.459Z,9.88
2022-12-05T19:16:44.190Z,9.91
2022-12-05T19:19:12.960Z,9.71
2022-12-05T19:21:40.534Z,9.97
2022-12-05T19:24:08.457Z,9.71
2022-12-05T19:26:36.509Z,9.55
2022-12-05T19:29:04.082Z,9.46
2022-12-05T19:31:31.867Z,9.50
2022-12-05T19:34:00.424Z,9.25
2022-12-05T19:36:31.821Z,9.16
2022-12-05T19:38:59.599Z,9.07
2022-12-05T19:41:28.952Z,9.20
2022-12-05T19:43:59.116Z,9.01
2022-12-05T19:46:29.698Z,8.57
2022-12-05T19:49:03.155Z,9.21
2022-12-05T19:51:31.251Z,9.35
2022-12-05T19:53:59.959Z,8.86
2022-12-05T19:56:28.271Z,9.03
2022-12-05T19:58:56.463Z,9.11
2022-12-05T20:01:25.754Z,8.43
2022-12-05T20:03:55.541Z,9.27
2022-12-05T20:06:23.081Z,9.64
2022-12-05T20:08:52.422Z,9.43
2022-12-05T20:11:21.949Z,9.14
2022-12-05T20:13:49.316Z,9.14
2022-12-05T20:16:18.568Z,9.64
2022-12-05T20:18:46.533Z,9.38
2022-12-05T20:21:15.360Z,9.51
2022-12-05T20:23:42.746Z,9.30
2022-12-05T20:26:15.349Z,8.84
2022-12-05T20:28:42.874Z,9.12
2022-12-05T20:31:15.314Z,8.74
2022-12-05T20:33:42.928Z,9.20
2022-12-05T20:36:12.342Z,9.20
2022-12-05T20:38:40.154Z,9.39
2022-12-05T20:41:09.155Z,8.87
2022-12-05T20:43:36.806Z,9.25
2022-12-05T20:46:05.642Z,8.87
2022-12-05T20:48:33.435Z,8.78
2022-12-05T20:51:08.340Z,9.32
2022-12-05T20:53:36.642Z,9.70
2022-12-05T20:56:12.104Z,9.97
2022-12-05T20:58:39.764Z,9.42
2022-12-05T21:01:10.154Z,9.79
2022-12-05T21:03:40.295Z,10.00
2022-12-05T21:06:18.466Z,10.08
2022-12-05T21:08:46.021Z,10.01
2022-12-05T21:11:13.811Z,9.78
2022-12-05T21:13:41.458Z,9.28
2022-12-05T21:16:11.399Z,8.66
2022-12-05T21:18:39.355Z,8.52
2022-12-05T21:21:08.614Z,8.72
2022-12-05T21:23:36.046Z,8.20
2022-12-05T21:26:05.306Z,8.57
2022-12-05T21:28:33.032Z,9.05
2022-12-05T21:31:12.668Z,9.62
2022-12-05T21:33:40.927Z,8.87
2022-12-05T21:36:08.490Z,9.44
2022-12-05T21:38:35.963Z,9.77
2022-12-05T21:41:04.303Z,9.68
2022-12-05T21:43:31.866Z,9.42
2022-12-05T21:45:59.220Z,9.18
2022-12-05T21:48:26.873Z,9.00
2022-12-05T21:50:54.352Z,9.57
2022-12-05T21:53:21.895Z,9.30
2022-12-05T21:55:58.987Z,8.98
2022-12-05T21:58:26.384Z,8.69
2022-12-05T22:00:54.107Z,7.79
2022-12-05T22:03:21.725Z,8.90
2022-12-05T22:05:49.697Z,9.32
2022-12-05T22:08:17.063Z,9.82
2022-12-05T22:10:45.195Z,9.72
2022-12-05T22:13:12.668Z,10.01
2022-12-05T22:15:40.179Z,9.80
2022-12-05T22:18:07.836Z,9.96
2022-12-05T22:20:35.223Z,9.80
2022-12-05T22:23:02.532Z,9.65
2022-12-05T22:25:30.129Z,8.89
2022-12-05T22:27:57.485Z,9.01
2022-12-05T22:30:24.839Z,9.15
2022-12-05T22:32:53.705Z,8.67
2022-12-05T22:35:21.063Z,9.23
2022-12-05T22:37:48.378Z,9.22
2022-12-05T22:40:16.073Z,9.42
2022-12-05T22:42:43.418Z,8.47
2022-12-05T22:45:10.879Z,8.71
2022-12-05T22:47:38.498Z,9.22
2022-12-05T22:50:06.385Z,9.68
2022-12-05T22:52:33.700Z,9.82
2022-12-05T22:55:01.350Z,9.34
2022-12-05T22:57:28.834Z,9.46
2022-12-05T22:59:56.289Z,9.27
2022-12-05T23:02:24.023Z,9.05
2022-12-05T23:04:51.369Z,8.78
2022-12-05T23:07:18.711Z,9.52
2022-12-05T23:09:46.317Z,9.49
2022-12-05T23:12:13.691Z,9.30
2022-12-05T23:14:41.083Z,9.09
2022-12-05T23:17:08.791Z,8.02
2022-12-05T23:19:36.103Z,8.87
2022-12-05T23:22:03.417Z,8.07
2022-12-05T23:24:31.007Z,9.12
2022-12-05T23:26:58.330Z,9.23
2022-12-05T23:29:25.786Z,9.20
2022-12-05T23:31:53.431Z,8.65
2022-12-05T23:34:20.756Z,8.78
2022-12-05T23:36:48.081Z,8.86
2022-12-05T23:39:15.676Z,9.06
2022-12-05T23:41:44.125Z,9.07
2022-12-05T23:44:11.482Z,8.70
2022-12-05T23:46:39.362Z,8.69
2022-12-05T23:49:06.734Z,8.60
2022-12-05T23:51:34.098Z,8.89
2022-12-05T23:54:02.412Z,8.90
2022-12-05T23:56:31.169Z,8.22
2022-12-05T23:58:58.565Z,8.09
